createdAt,value
2023-11-24T00:02:06.976Z,5.05
2023-11-24T00:07:08.891Z,3.72
2023-11-24T00:12:11.063Z,3.67
2023-11-24T00:17:12.881Z,1.65
2023-11-24T00:22:14.675Z,4.15
2023-11-24T00:27:17.604Z,8.43
2023-11-24T00:32:20.491Z,8.60
2023-11-24T00:37:23.246Z,6.07
2023-11-24T00:42:25.515Z,7.93
2023-11-24T00:47:27.530Z,9.63
2023-11-24T00:52:29.468Z,12.07
2023-11-24T00:57:31.342Z,8.77
2023-11-24T01:02:37.536Z,8.35
2023-11-24T01:07:39.538Z,4.57
2023-11-24T01:12:41.391Z,10.23
2023-11-24T01:17:45.946Z,15.05
2023-11-24T01:22:47.917Z,4.95
2023-11-24T01:27:49.768Z,7.43
2023-11-24T01:32:51.693Z,8.77
2023-11-24T01:37:54.405Z,4.70
2023-11-24T01:42:56.702Z,3.28
2023-11-24T01:47:58.717Z,4.15
2023-11-24T01:53:00.776Z,8.55
2023-11-24T01:58:05.234Z,5.25
2023-11-24T02:03:07.345Z,6.20
2023-11-24T02:08:09.620Z,2.95
2023-11-24T02:13:11.511Z,7.18
2023-11-24T02:18:13.567Z,2.15
2023-11-24T02:23:17.575Z,8.27
2023-11-24T02:28:19.457Z,8.52
2023-11-24T02:33:22.041Z,6.00
2023-11-24T02:38:23.941Z,11.60
2023-11-24T02:43:26.005Z,14.07
2023-11-24T02:48:27.994Z,6.57
2023-11-24T02:53:30.398Z,10.30
2023-11-24T02:58:35.644Z,9.77
2023-11-24T03:03:38.731Z,7.53
2023-11-24T03:08:40.622Z,12.30
2023-11-24T03:13:42.432Z,8.50
2023-11-24T03:18:44.942Z,9.13
2023-11-24T03:23:47.776Z,5.25
2023-11-24T03:28:49.600Z,11.38
2023-11-24T03:33:51.515Z,8.63
2023-11-24T03:38:53.602Z,9.65
2023-11-24T03:43:55.420Z,9.40
2023-11-24T03:48:57.353Z,10.68
2023-11-24T03:53:59.186Z,8.82
2023-11-24T03:59:01.074Z,8.30
2023-11-24T04:04:03.015Z,16.83
2023-11-24T04:09:06.094Z,14.00
2023-11-24T04:14:08.745Z,14.30
2023-11-24T04:19:10.631Z,25.13
2023-11-24T04:24:13.120Z,12.70
2023-11-24T04:29:14.971Z,10.35
2023-11-24T04:34:16.855Z,12.38
2023-11-24T04:39:18.878Z,10.70
2023-11-24T04:44:21.455Z,23.23
2023-11-24T04:49:23.522Z,22.70
2023-11-24T04:54:25.415Z,17.67
2023-11-24T04:59:28.816Z,7.82
2023-11-24T05:04:32.128Z,16.10
2023-11-24T05:09:34.321Z,21.00
2023-11-24T05:14:36.214Z,11.55
2023-11-24T05:19:38.032Z,11.48
2023-11-24T05:24:40.951Z,14.85
2023-11-24T05:29:42.774Z,14.45
2023-11-24T05:34:44.666Z,25.38
2023-11-24T05:39:46.822Z,15.25
2023-11-24T05:44:48.708Z,17.83
2023-11-24T05:49:52.647Z,16.05
2023-11-24T05:54:58.865Z,14.80
2023-11-24T06:00:00.874Z,14.05
2023-11-24T06:05:04.408Z,10.23
2023-11-24T06:10:07.757Z,18.13
2023-11-24T06:15:10.676Z,11.30
2023-11-24T06:20:12.588Z,10.45
2023-11-24T06:25:17.179Z,7.30
2023-11-24T06:30:19.178Z,10.32
2023-11-24T06:35:22.102Z,13.38
2023-11-24T06:40:25.465Z,10.90
2023-11-24T06:45:27.337Z,13.43
2023-11-24T06:50:29.159Z,14.43
2023-11-24T06:55:30.975Z,18.33
2023-11-24T07:00:34.010Z,8.63
2023-11-24T07:05:36.965Z,16.88
2023-11-24T07:10:39.353Z,13.30
2023-11-24T07:15:41.287Z,8.07
2023-11-24T07:20:43.132Z,14.40
2023-11-24T07:25:46.399Z,5.13
2023-11-24T07:30:49.968Z,6.45
2023-11-24T07:35:51.847Z,9.30
2023-11-24T07:40:53.819Z,3.38
2023-11-24T07:45:55.708Z,13.85
2023-11-24T07:50:57.568Z,7.15
2023-11-24T07:56:00.240Z,11.00
2023-11-24T08:01:06.136Z,12.27
2023-11-24T08:06:09.962Z,8.60
2023-11-24T08:11:12.260Z,11.68
2023-11-24T08:16:14.269Z,9.18
2023-11-24T08:21:16.729Z,6.72
2023-11-24T08:26:20.596Z,6.03
2023-11-24T08:31:22.695Z,9.88
2023-11-24T08:36:26.817Z,4.30
2023-11-24T08:41:35.471Z,6.07
2023-11-24T08:46:43.808Z,3.78
2023-11-24T08:51:45.762Z,3.45
2023-11-24T08:56:47.636Z,5.88
2023-11-24T09:01:51.004Z,8.13
2023-11-24T09:06:52.939Z,4.45
2023-11-24T09:11:54.799Z,0.43
2023-11-24T09:16:57.898Z,1.52
2023-11-24T09:22:01.477Z,1.00
2023-11-24T09:27:04.579Z,4.60
2023-11-24T09:32:06.780Z,2.53
2023-11-24T09:37:08.623Z,2.08
2023-11-24T09:42:15.054Z,9.70
2023-11-24T09:47:20.943Z,4.65
2023-11-24T09:52:25.342Z,4.13
2023-11-24T09:57:27.204Z,0.82
2023-11-24T10:02:29.892Z,4.05
2023-11-24T10:07:32.030Z,1.27
2023-11-24T10:12:35.104Z,1.88
2023-11-24T10:17:38.327Z,1.70
2023-11-24T10:22:40.521Z,1.38
2023-11-24T10:27:42.506Z,2.28
2023-11-24T10:32:48.674Z,0.50
2023-11-24T10:37:50.988Z,0.85
2023-11-24T10:42:55.414Z,0.95
2023-11-24T10:48:11.145Z,1.55
2023-11-24T10:53:32.256Z,1.63
2023-11-24T10:58:34.658Z,11.85
2023-11-24T11:03:37.382Z,2.65
2023-11-24T11:08:46.208Z,1.92
2023-11-24T11:13:48.660Z,1.35
2023-11-24T11:18:51.217Z,4.60
2023-11-24T11:23:58.002Z,5.05
2023-11-24T11:28:59.785Z,9.98
2023-11-24T11:34:17.398Z,12.23
2023-11-24T11:39:27.857Z,16.33
2023-11-24T11:44:36.303Z,7.70
2023-11-24T11:49:41.834Z,11.98
2023-11-24T11:54:46.702Z,10.00
2023-11-24T11:59:51.763Z,8.70
2023-11-24T12:04:53.777Z,6.07
2023-11-24T12:09:55.747Z,5.25
2023-11-24T12:14:57.893Z,5.35
2023-11-24T12:20:00.363Z,6.28
2023-11-24T12:25:03.498Z,5.55
2023-11-24T12:30:06.665Z,4.03
2023-11-24T12:35:09.677Z,4.75
2023-11-24T12:40:12.498Z,7.25
2023-11-24T12:45:14.658Z,5.50
2023-11-24T12:50:18.119Z,3.55
2023-11-24T12:55:20.022Z,3.13
2023-11-24T13:00:27.426Z,7.88
2023-11-24T13:05:29.458Z,6.50
2023-11-24T13:10:35.651Z,6.18
2023-11-24T13:15:38.841Z,7.53
2023-11-24T13:20:41.737Z,4.18
2023-11-24T13:25:45.272Z,4.82
2023-11-24T13:30:51.514Z,5.85
2023-11-24T13:35:53.407Z,8.35
2023-11-24T13:40:55.960Z,6.63
2023-11-24T13:45:57.831Z,3.65
2023-11-24T13:51:04.480Z,7.05
2023-11-24T13:56:06.645Z,5.75
2023-11-24T14:01:08.755Z,5.10
2023-11-24T14:06:10.597Z,1.35
2023-11-24T14:11:12.956Z,2.33
2023-11-24T14:16:15.650Z,13.57
2023-11-24T14:21:20.114Z,5.43
2023-11-24T14:26:21.939Z,4.80
2023-11-24T14:31:23.840Z,7.25
2023-11-24T14:36:27.443Z,7.10
2023-11-24T14:41:32.358Z,6.32
2023-11-24T14:46:34.504Z,3.47
2023-11-24T14:51:39.658Z,10.43
2023-11-24T14:56:41.888Z,7.32
2023-11-24T15:01:44.732Z,3.38
2023-11-24T15:06:51.373Z,6.15
2023-11-24T15:11:54.089Z,3.72
2023-11-24T15:16:59.250Z,5.10
2023-11-24T15:22:10.817Z,5.07
2023-11-24T15:27:14.822Z,3.22
2023-11-24T15:32:21.197Z,4.55
2023-11-24T15:37:23.977Z,5.15
2023-11-24T15:42:30.339Z,2.13
2023-11-24T15:47:32.946Z,4.35
2023-11-24T15:52:37.176Z,3.60
2023-11-24T15:57:40.030Z,2.85
2023-11-24T16:02:41.955Z,2.63
2023-11-24T16:07:43.809Z,2.25
2023-11-24T16:12:46.014Z,8.05
2023-11-24T16:17:49.152Z,5.60
2023-11-24T16:22:51.233Z,7.35
2023-11-24T16:27:53.217Z,2.40
2023-11-24T16:32:55.174Z,2.70
2023-11-24T16:37:57.053Z,2.65
2023-11-24T16:42:58.902Z,3.03
2023-11-24T16:48:00.912Z,9.27
2023-11-24T16:53:02.829Z,1.38
2023-11-24T16:58:06.994Z,2.45
2023-11-24T17:03:12.111Z,1.20
2023-11-24T17:08:14.106Z,0.70
2023-11-24T17:13:15.971Z,1.52
2023-11-24T17:18:18.764Z,3.55
2023-11-24T17:23:21.080Z,2.58
2023-11-24T17:28:23.266Z,2.70
2023-11-24T17:33:25.248Z,2.67
2023-11-24T17:38:27.102Z,1.35
2023-11-24T17:43:28.938Z,2.70
2023-11-24T17:48:31.573Z,5.40
2023-11-24T17:53:34.222Z,6.88
2023-11-24T17:58:36.141Z,6.18
2023-11-24T18:03:38.351Z,5.35
2023-11-24T18:08:40.225Z,4.68
2023-11-24T18:13:42.064Z,5.10
2023-11-24T18:18:44.768Z,7.13
2023-11-24T18:23:46.816Z,4.15
2023-11-24T18:28:50.528Z,4.07
2023-11-24T18:33:52.414Z,4.47
2023-11-24T18:38:54.220Z,12.68
2023-11-24T18:43:57.325Z,2.60
2023-11-24T18:49:00.408Z,4.15
2023-11-24T18:54:02.397Z,11.68
2023-11-24T18:59:04.215Z,2.30
2023-11-24T19:04:06.182Z,2.83
2023-11-24T19:09:08.032Z,1.58
2023-11-24T19:14:10.528Z,1.95
2023-11-24T19:19:14.990Z,1.20
2023-11-24T19:24:16.824Z,5.15
2023-11-24T19:29:18.648Z,4.97
2023-11-24T19:34:20.493Z,4.05
2023-11-24T19:39:24.158Z,2.05
2023-11-24T19:44:26.079Z,5.38
2023-11-24T19:49:28.118Z,3.83
2023-11-24T19:54:29.979Z,4.28
2023-11-24T19:59:31.818Z,6.15
2023-11-24T20:04:34.229Z,5.68
2023-11-24T20:09:37.839Z,4.70
2023-11-24T20:14:42.150Z,4.88
2023-11-24T20:19:44.319Z,9.68
2023-11-24T20:24:47.375Z,6.50
2023-11-24T20:29:49.228Z,1.75
2023-11-24T20:34:51.133Z,6.82
2023-11-24T20:39:57.072Z,3.28
2023-11-24T20:44:58.976Z,4.90
2023-11-24T20:50:00.813Z,3.00
2023-11-24T20:55:02.735Z,4.72
2023-11-24T21:00:11.453Z,11.82
2023-11-24T21:05:13.356Z,3.88
2023-11-24T21:10:15.626Z,2.05
2023-11-24T21:15:17.447Z,4.75
2023-11-24T21:20:21.582Z,6.18
2023-11-24T21:25:23.465Z,6.28
2023-11-24T21:30:28.643Z,5.53
2023-11-24T21:35:32.182Z,2.78
2023-11-24T21:40:34.123Z,2.15
2023-11-24T21:45:38.416Z,3.20
2023-11-24T21:50:40.302Z,4.07
2023-11-24T21:55:44.098Z,1.98
2023-11-24T22:00:46.085Z,2.67
2023-11-24T22:05:49.299Z,3.08
2023-11-24T22:10:54.182Z,4.15
2023-11-24T22:15:56.163Z,5.05
2023-11-24T22:20:58.479Z,4.43
2023-11-24T22:26:00.388Z,8.00
2023-11-24T22:31:02.348Z,3.08
2023-11-24T22:36:04.952Z,2.35
2023-11-24T22:41:06.958Z,5.20
2023-11-24T22:46:08.883Z,1.85
2023-11-24T22:51:18.056Z,3.65
2023-11-24T22:56:27.539Z,5.88
2023-11-24T23:01:30.082Z,4.10
2023-11-24T23:06:34.126Z,3.40
2023-11-24T23:11:36.270Z,3.55
2023-11-24T23:16:38.215Z,1.27
2023-11-24T23:21:42.114Z,2.05
2023-11-24T23:26:44.144Z,2.58
2023-11-24T23:31:46.203Z,7.50
2023-11-24T23:36:48.263Z,7.68
2023-11-24T23:41:50.129Z,1.65
2023-11-24T23:46:52.468Z,1.90
2023-11-24T23:51:54.438Z,3.17
2023-11-24T23:56:56.264Z,3.22
